Time;durP1;ratioP1;P1;durP2;ratioP2;P2;SDS_P1;SDS_P2;PMS_P1;PMS_P2;Temp;Humidity;BMP_temperature;BMP_pressure;BME280_temperature;BME280_humidity;BME280_pressure;Samples;Min_cycle;Max_cycle;Signal;HPM_P1;HPM_P2
2023/07/05 00:01:43;;;;;;;8.00;3.35;;;15.90;99.90;;;;;;4892964;29;20079;-63
2023/07/05 00:04:09;;;;;;;9.07;3.50;;;15.90;99.90;;;;;;4914662;29;20040;-64
2023/07/05 00:06:35;;;;;;;9.95;3.35;;;15.90;99.90;;;;;;4907710;29;20094;-64
2023/07/05 00:09:01;;;;;;;7.90;3.17;;;15.80;99.90;;;;;;4917135;29;20468;-63
2023/07/05 00:11:27;;;;;;;16.30;3.80;;;15.80;99.90;;;;;;4900990;29;20040;-64
2023/07/05 00:13:53;;;;;;;9.57;4.05;;;15.80;99.90;;;;;;4919772;29;20062;-63
2023/07/05 00:16:20;;;;;;;8.73;3.70;;;15.70;99.90;;;;;;4897051;29;20039;-63
2023/07/05 00:18:46;;;;;;;7.90;3.75;;;15.70;99.90;;;;;;4905332;29;20044;-64
2023/07/05 00:21:12;;;;;;;9.90;3.70;;;15.70;99.90;;;;;;4933924;28;20908;-64
2023/07/05 00:23:39;;;;;;;9.40;4.30;;;15.60;99.90;;;;;;4904177;29;20057;-64
2023/07/05 00:26:06;;;;;;;8.38;3.75;;;15.60;99.90;;;;;;4921079;29;20044;-63
2023/07/05 00:28:33;;;;;;;8.45;3.70;;;15.60;99.90;;;;;;4922521;29;20040;-64
2023/07/05 00:31:02;;;;;;;10.90;4.38;;;15.50;99.90;;;;;;4936682;28;20048;-64
2023/07/05 00:33:28;;;;;;;11.25;4.05;;;15.50;99.90;;;;;;4933434;28;20048;-64
2023/07/05 00:35:54;;;;;;;7.22;3.92;;;15.40;99.90;;;;;;4904685;29;20051;-64
2023/07/05 00:38:21;;;;;;;6.38;3.80;;;15.40;99.90;;;;;;4938090;28;20040;-64
2023/07/05 00:40:48;;;;;;;9.43;4.07;;;15.40;99.90;;;;;;4891005;29;20071;-64
2023/07/05 00:43:16;;;;;;;9.13;4.45;;;15.30;99.90;;;;;;4905049;29;20047;-64
2023/07/05 00:45:57;;;;;;;6.93;4.25;;;15.30;99.90;;;;;;4933592;28;20517;-63
2023/07/05 00:48:32;;;;;;;11.32;4.95;;;15.30;99.90;;;;;;4907558;29;20040;-63
2023/07/05 00:51:00;;;;;;;8.35;4.40;;;15.20;99.90;;;;;;4913791;29;20178;-64
2023/07/05 00:53:28;;;;;;;8.32;4.57;;;15.20;99.90;;;;;;4916639;29;20071;-64
2023/07/05 00:56:01;;;;;;;8.10;4.80;;;15.20;99.90;;;;;;4918106;29;20047;-64
2023/07/05 00:58:27;;;;;;;10.50;5.40;;;15.10;99.90;;;;;;4897780;29;20067;-63
2023/07/05 01:00:54;;;;;;;12.88;5.03;;;15.10;99.90;;;;;;4897367;29;20522;-63
2023/07/05 01:03:21;;;;;;;8.60;5.72;;;15.10;99.90;;;;;;4884204;29;20055;-64
2023/07/05 01:05:51;;;;;;;11.43;4.95;;;15.10;99.90;;;;;;4898406;29;20052;-64
2023/07/05 01:08:17;;;;;;;11.45;5.78;;;15.00;99.90;;;;;;4912610;29;20107;-64
2023/07/05 01:10:50;;;;;;;8.75;4.95;;;15.00;99.90;;;;;;4915070;29;20083;-64
2023/07/05 01:13:24;;;;;;;13.23;5.50;;;15.00;99.90;;;;;;4895522;29;20084;-63
2023/07/05 01:16:22;;;;;;;12.00;5.13;;;15.00;99.90;;;;;;4890599;29;20070;-62
2023/07/05 01:19:24;;;;;;;10.63;5.50;;;15.00;99.90;;;;;;4917452;29;20459;-63
2023/07/05 01:22:00;;;;;;;12.07;5.10;;;15.00;99.90;;;;;;4902299;29;20051;-64
2023/07/05 01:24:30;;;;;;;11.50;5.35;;;15.00;99.90;;;;;;4888766;29;20047;-64
2023/07/05 01:27:14;;;;;;;10.65;5.43;;;15.00;99.90;;;;;;4888000;29;20400;-64
2023/07/05 01:30:20;;;;;;;10.43;5.68;;;15.00;99.90;;;;;;4913027;29;20052;-64
2023/07/05 01:32:53;;;;;;;14.00;5.60;;;15.10;99.90;;;;;;4898632;29;20122;-63
2023/07/05 01:35:34;;;;;;;14.10;6.25;;;15.00;99.90;;;;;;4902313;29;20561;-62
2023/07/05 01:38:03;;;;;;;10.60;5.75;;;15.00;99.90;;;;;;4911862;29;20043;-63
2023/07/05 01:40:29;;;;;;;9.15;5.88;;;15.00;99.90;;;;;;4885751;29;20536;-64
2023/07/05 01:42:58;;;;;;;11.73;5.97;;;15.00;99.90;;;;;;4913786;29;20091;-64
2023/07/05 01:45:46;;;;;;;16.00;7.05;;;15.00;99.90;;;;;;4905888;28;22284;-65
2023/07/05 01:48:53;;;;;;;13.82;6.95;;;15.00;99.90;;;;;;4915413;28;20054;-64
2023/07/05 01:51:43;;;;;;;16.60;6.82;;;15.00;99.90;;;;;;4913595;29;20106;-65
2023/07/05 01:54:33;;;;;;;13.75;7.10;;;15.00;99.90;;;;;;4916439;29;20048;-65
2023/07/05 01:57:05;;;;;;;13.38;6.95;;;15.00;99.90;;;;;;4933782;28;20646;-67
2023/07/05 01:59:59;;;;;;;16.38;7.47;;;15.00;99.90;;;;;;4917588;28;20110;-66
2023/07/05 02:02:34;;;;;;;12.73;7.60;;;15.00;99.90;;;;;;4919820;29;20055;-65
2023/07/05 02:05:02;;;;;;;16.17;7.78;;;15.00;99.90;;;;;;4919328;28;20078;-64
2023/07/05 02:07:30;;;;;;;17.83;8.00;;;15.00;99.90;;;;;;4932531;28;20744;-67
2023/07/05 02:09:56;;;;;;;14.90;7.68;;;15.00;99.90;;;;;;4914184;29;20075;-64
2023/07/05 02:12:23;;;;;;;19.98;8.18;;;15.00;99.90;;;;;;4917347;29;20050;-66
2023/07/05 02:14:49;;;;;;;16.23;8.13;;;15.00;99.90;;;;;;4935304;29;20183;-66
2023/07/05 02:17:18;;;;;;;13.90;7.68;;;14.90;99.90;;;;;;4917341;29;20043;-66
2023/07/05 02:19:43;;;;;;;14.75;7.53;;;14.90;99.90;;;;;;4923532;29;20042;-66
2023/07/05 02:22:10;;;;;;;17.92;8.35;;;14.90;99.90;;;;;;4915540;29;20508;-66
2023/07/05 02:24:36;;;;;;;16.30;8.45;;;14.90;99.90;;;;;;4900329;29;20400;-67
2023/07/05 02:27:02;;;;;;;16.38;8.48;;;14.90;99.90;;;;;;4925360;28;20051;-66
2023/07/05 02:29:30;;;;;;;13.07;8.13;;;14.90;99.90;;;;;;4936176;28;20425;-64
2023/07/05 02:31:59;;;;;;;19.85;8.57;;;14.80;99.90;;;;;;4912916;29;20043;-66
2023/07/05 02:34:26;;;;;;;14.30;7.95;;;14.80;99.90;;;;;;4924271;29;20051;-65
2023/07/05 02:36:52;;;;;;;15.57;8.48;;;14.80;99.90;;;;;;4939449;28;20055;-66
2023/07/05 02:39:17;;;;;;;15.38;9.00;;;14.80;99.90;;;;;;4937459;28;20392;-67
2023/07/05 02:41:43;;;;;;;14.73;8.68;;;14.80;99.90;;;;;;4920522;28;20126;-66
2023/07/05 02:44:09;;;;;;;15.77;8.77;;;14.70;99.90;;;;;;4928018;29;20090;-65
2023/07/05 02:46:36;;;;;;;13.00;9.05;;;14.80;99.90;;;;;;4922018;29;20064;-66
2023/07/05 02:49:02;;;;;;;16.65;9.20;;;14.70;99.90;;;;;;4899025;29;20048;-66
2023/07/05 02:51:28;;;;;;;17.90;8.95;;;14.70;99.90;;;;;;4904992;29;20866;-67
2023/07/05 02:53:55;;;;;;;15.63;9.02;;;14.80;99.90;;;;;;4885498;29;20080;-64
2023/07/05 02:56:21;;;;;;;16.92;9.25;;;14.70;99.90;;;;;;4903015;29;20036;-67
2023/07/05 02:58:47;;;;;;;16.35;9.77;;;14.70;99.90;;;;;;4878895;29;20032;-68
2023/07/05 03:01:13;;;;;;;14.98;9.65;;;14.80;99.90;;;;;;4893888;29;20044;-68
2023/07/05 03:03:39;;;;;;;16.23;9.90;;;14.70;99.90;;;;;;4900496;29;20040;-64
2023/07/05 03:06:05;;;;;;;20.20;10.18;;;14.70;99.90;;;;;;4915020;29;20051;-65
2023/07/05 03:08:30;;;;;;;22.30;10.40;;;14.70;99.90;;;;;;4898534;29;20047;-69
2023/07/05 03:10:58;;;;;;;23.55;10.82;;;14.70;99.90;;;;;;4897422;29;20040;-69
2023/07/05 03:13:27;;;;;;;19.08;10.90;;;14.70;99.90;;;;;;4883949;29;20556;-69
2023/07/05 03:15:53;;;;;;;18.60;10.18;;;14.70;99.90;;;;;;4882454;29;20630;-69
2023/07/05 03:18:19;;;;;;;16.25;10.55;;;14.60;99.90;;;;;;4895537;29;20036;-68
2023/07/05 03:20:46;;;;;;;19.67;10.93;;;14.70;99.90;;;;;;4896061;29;20040;-65
2023/07/05 03:23:15;;;;;;;19.35;11.27;;;14.70;99.90;;;;;;4897015;29;20638;-67
2023/07/05 03:25:51;;;;;;;18.15;10.18;;;14.70;99.90;;;;;;4888934;29;20048;-68
2023/07/05 03:28:17;;;;;;;17.65;10.60;;;14.70;99.90;;;;;;4896459;29;20436;-67
2023/07/05 03:30:43;;;;;;;19.58;12.25;;;14.70;99.90;;;;;;4903101;29;20051;-67
2023/07/05 03:33:09;;;;;;;21.38;11.38;;;14.70;99.90;;;;;;4884411;29;20894;-64
2023/07/05 03:35:34;;;;;;;24.00;12.25;;;14.70;99.90;;;;;;4890328;29;20158;-67
2023/07/05 03:38:00;;;;;;;17.75;10.93;;;14.70;99.90;;;;;;4897070;29;20480;-64
2023/07/05 03:40:26;;;;;;;14.27;10.70;;;14.70;99.90;;;;;;4897429;29;20056;-66
2023/07/05 03:42:52;;;;;;;22.70;12.52;;;14.80;99.90;;;;;;4899837;29;20126;-68
2023/07/05 03:45:17;;;;;;;20.10;12.63;;;14.80;99.90;;;;;;4905160;28;20055;-67
2023/07/05 03:47:43;;;;;;;19.48;11.57;;;14.80;99.90;;;;;;4900536;29;20133;-64
2023/07/05 03:50:09;;;;;;;16.95;12.02;;;14.80;99.90;;;;;;4937460;28;20499;-63
2023/07/05 03:52:35;;;;;;;20.63;12.63;;;14.80;99.90;;;;;;4917201;29;20170;-68
2023/07/05 03:55:01;;;;;;;18.73;12.88;;;14.80;99.90;;;;;;4918237;29;20130;-67
2023/07/05 03:57:26;;;;;;;16.15;11.57;;;14.80;99.90;;;;;;4903837;29;22518;-67
2023/07/05 03:59:52;;;;;;;19.15;12.18;;;14.80;99.90;;;;;;4904060;28;20119;-67
2023/07/05 04:02:18;;;;;;;19.98;12.95;;;14.80;99.90;;;;;;4875600;28;20043;-69
2023/07/05 04:04:44;;;;;;;18.83;11.02;;;14.90;99.90;;;;;;4918189;28;20046;-67
2023/07/05 04:07:10;;;;;;;18.67;10.40;;;14.90;99.90;;;;;;4915253;28;20039;-66
2023/07/05 04:09:36;;;;;;;14.75;11.10;;;14.90;99.90;;;;;;4917715;29;20042;-68
2023/07/05 04:12:02;;;;;;;18.52;10.77;;;14.90;99.90;;;;;;4921126;28;20492;-68
2023/07/05 04:14:27;;;;;;;16.75;10.52;;;14.90;99.90;;;;;;4919094;28;20050;-67
2023/07/05 04:16:53;;;;;;;13.25;9.02;;;14.90;99.90;;;;;;4925182;28;20093;-68
2023/07/05 04:19:19;;;;;;;14.95;9.35;;;14.90;99.90;;;;;;4919837;29;20044;-64
2023/07/05 04:21:44;;;;;;;12.85;8.02;;;14.90;99.90;;;;;;4919290;29;20047;-67
2023/07/05 04:24:10;;;;;;;13.10;8.00;;;15.00;99.90;;;;;;4921084;28;20044;-66
2023/07/05 04:26:36;;;;;;;12.15;8.35;;;15.00;99.90;;;;;;4924142;29;20130;-69
2023/07/05 04:29:01;;;;;;;11.35;8.32;;;15.00;99.90;;;;;;4909407;29;20043;-68
2023/07/05 04:31:29;;;;;;;13.98;8.20;;;15.10;99.90;;;;;;4939193;28;20728;-65
2023/07/05 04:33:56;;;;;;;12.77;8.05;;;15.10;99.90;;;;;;4905695;29;24745;-68
2023/07/05 04:36:24;;;;;;;13.05;8.18;;;15.10;99.90;;;;;;4928637;28;20624;-66
2023/07/05 04:38:51;;;;;;;11.50;7.50;;;15.20;99.90;;;;;;4923533;28;20044;-66
2023/07/05 04:41:17;;;;;;;13.25;8.23;;;15.20;99.90;;;;;;4921431;29;20043;-68
2023/07/05 04:43:42;;;;;;;14.35;9.55;;;15.20;99.90;;;;;;4927316;29;20686;-67
2023/07/05 04:46:08;;;;;;;12.77;8.88;;;15.20;99.90;;;;;;4925133;28;20056;-64
2023/07/05 04:48:34;;;;;;;12.60;8.48;;;15.30;99.90;;;;;;4917297;28;20062;-68
2023/07/05 04:50:59;;;;;;;14.90;7.95;;;15.30;99.90;;;;;;4918465;28;20047;-67
2023/07/05 04:53:27;;;;;;;12.65;7.90;;;15.30;99.90;;;;;;4922917;29;20407;-67
2023/07/05 04:55:56;;;;;;;11.60;7.65;;;15.30;99.90;;;;;;4914759;28;20174;-66
2023/07/05 04:58:23;;;;;;;11.02;7.25;;;15.40;99.90;;;;;;4928077;28;21187;-68
2023/07/05 05:00:49;;;;;;;12.73;7.07;;;15.40;99.90;;;;;;4910788;28;20070;-66
2023/07/05 05:03:17;;;;;;;10.18;7.00;;;15.40;99.90;;;;;;4916168;28;20403;-68
2023/07/05 05:05:44;;;;;;;12.27;6.25;;;15.40;99.90;;;;;;4910382;28;20087;-66
2023/07/05 05:08:10;;;;;;;11.43;6.65;;;15.40;99.90;;;;;;4905688;28;20510;-67
2023/07/05 05:10:37;;;;;;;10.57;6.50;;;15.40;99.90;;;;;;4929587;28;20094;-67
2023/07/05 05:13:04;;;;;;;12.00;6.40;;;15.40;99.90;;;;;;4898376;28;20078;-66
2023/07/05 05:15:37;;;;;;;10.13;5.97;;;15.40;99.90;;;;;;4934833;28;20055;-67
2023/07/05 05:18:04;;;;;;;8.27;4.40;;;15.40;99.90;;;;;;4919080;29;20039;-67
2023/07/05 05:20:31;;;;;;;6.90;3.72;;;15.40;99.90;;;;;;4935933;28;22307;-67
2023/07/05 05:22:58;;;;;;;5.20;4.00;;;15.30;99.90;;;;;;4904254;29;20050;-64
2023/07/05 05:25:24;;;;;;;5.78;4.10;;;15.30;99.90;;;;;;4919331;29;20071;-67
2023/07/05 05:27:50;;;;;;;5.28;3.70;;;15.20;99.90;;;;;;4908745;28;20063;-68
2023/07/05 05:30:15;;;;;;;5.07;3.30;;;15.20;99.90;;;;;;4920983;29;20384;-67
2023/07/05 05:32:41;;;;;;;5.55;3.80;;;15.10;99.90;;;;;;4918226;29;20586;-64
2023/07/05 05:35:08;;;;;;;8.57;4.43;;;15.10;99.90;;;;;;4924318;28;20118;-67
2023/07/05 05:37:34;;;;;;;6.72;4.18;;;15.20;99.90;;;;;;4935804;28;20138;-62
2023/07/05 05:39:59;;;;;;;7.82;3.92;;;15.10;99.90;;;;;;4916683;29;20403;-65
2023/07/05 05:42:25;;;;;;;6.90;3.97;;;15.10;99.90;;;;;;4916091;29;20043;-66
2023/07/05 05:44:51;;;;;;;6.50;4.53;;;15.10;99.90;;;;;;4919113;28;20066;-61
2023/07/05 05:47:17;;;;;;;5.38;4.32;;;15.00;99.90;;;;;;4905418;28;20138;-60
2023/07/05 05:49:42;;;;;;;8.98;4.53;;;15.00;99.90;;;;;;4907678;28;20043;-61
2023/07/05 05:52:08;;;;;;;6.78;3.90;;;15.00;99.90;;;;;;4935961;28;20046;-60
2023/07/05 05:54:35;;;;;;;5.35;4.40;;;14.90;99.90;;;;;;4903455;29;20949;-60
2023/07/05 05:57:01;;;;;;;7.80;4.57;;;14.90;99.90;;;;;;4918854;28;20046;-60
2023/07/05 05:59:27;;;;;;;6.03;3.97;;;14.90;99.90;;;;;;4917374;28;20457;-60
2023/07/05 06:01:53;;;;;;;6.88;4.40;;;14.90;99.90;;;;;;4908835;28;20075;-59
2023/07/05 06:04:19;;;;;;;7.75;4.07;;;15.00;99.90;;;;;;4904304;28;20058;-62
2023/07/05 06:06:45;;;;;;;6.47;4.50;;;15.00;99.90;;;;;;4906392;29;26174;-59
2023/07/05 06:09:10;;;;;;;7.25;4.20;;;15.00;99.90;;;;;;4922054;29;20101;-59
2023/07/05 06:11:36;;;;;;;7.78;4.07;;;15.10;99.90;;;;;;4920120;29;20050;-59
2023/07/05 06:14:02;;;;;;;6.03;3.90;;;15.10;99.90;;;;;;4920002;29;20149;-61
2023/07/05 06:16:27;;;;;;;6.55;3.97;;;15.10;99.90;;;;;;4937412;28;20484;-60
2023/07/05 06:18:53;;;;;;;5.68;4.07;;;15.10;99.90;;;;;;4921414;28;20043;-59
2023/07/05 06:21:19;;;;;;;7.13;3.83;;;15.10;99.90;;;;;;4952146;28;20046;-59
2023/07/05 06:23:45;;;;;;;6.57;3.83;;;15.10;99.90;;;;;;4917967;29;20451;-58
2023/07/05 06:26:11;;;;;;;4.07;3.67;;;15.20;99.90;;;;;;4917484;28;20122;-59
2023/07/05 06:28:36;;;;;;;7.43;3.88;;;15.20;99.90;;;;;;4923746;29;20397;-59
2023/07/05 06:31:12;;;;;;;7.60;3.90;;;15.10;99.90;;;;;;4939402;29;20467;-60
2023/07/05 06:33:38;;;;;;;8.27;3.70;;;15.20;99.90;;;;;;4949665;28;20515;-60
2023/07/05 06:36:06;;;;;;;5.43;3.70;;;15.20;99.90;;;;;;4935884;28;20535;-60
2023/07/05 06:38:32;;;;;;;5.85;3.85;;;15.20;99.90;;;;;;4924297;29;20039;-59
2023/07/05 06:40:57;;;;;;;6.38;3.80;;;15.20;99.90;;;;;;4910113;29;20046;-60
2023/07/05 06:43:24;;;;;;;4.68;3.30;;;15.30;99.90;;;;;;4919925;29;20167;-58
2023/07/05 06:45:52;;;;;;;6.30;3.75;;;15.20;99.90;;;;;;4952670;28;20110;-58
2023/07/05 06:48:19;;;;;;;4.38;3.55;;;15.30;99.90;;;;;;4925651;29;20055;-60
2023/07/05 06:50:50;;;;;;;5.10;3.92;;;15.30;99.90;;;;;;4906278;29;20062;-59
2023/07/05 06:53:16;;;;;;;5.97;3.83;;;15.40;99.90;;;;;;4908275;29;20074;-60
2023/07/05 06:55:42;;;;;;;5.25;3.50;;;15.40;99.90;;;;;;4938638;28;20039;-59
2023/07/05 06:58:07;;;;;;;6.40;3.42;;;15.40;99.90;;;;;;4926694;29;20078;-59
2023/07/05 07:00:33;;;;;;;6.50;3.53;;;15.50;99.90;;;;;;4903831;29;20129;-59
2023/07/05 07:02:59;;;;;;;7.03;3.55;;;15.40;99.90;;;;;;4918730;29;20474;-59
2023/07/05 07:05:25;;;;;;;5.90;3.60;;;15.50;99.90;;;;;;4898185;29;20516;-59
2023/07/05 07:07:51;;;;;;;5.82;3.30;;;15.50;99.90;;;;;;4921089;29;20058;-62
2023/07/05 07:10:17;;;;;;;4.20;3.03;;;15.50;99.90;;;;;;4925521;29;20051;-59
2023/07/05 07:12:43;;;;;;;4.78;3.20;;;15.60;99.90;;;;;;4923163;29;20050;-60
2023/07/05 07:15:09;;;;;;;5.45;3.20;;;15.70;99.90;;;;;;4915422;29;20043;-59
2023/07/05 07:17:34;;;;;;;6.63;3.50;;;15.70;99.90;;;;;;4925590;28;20067;-60
2023/07/05 07:20:00;;;;;;;9.68;3.88;;;15.90;99.90;;;;;;4927429;29;20070;-59
2023/07/05 07:22:26;;;;;;;6.47;3.80;;;16.00;99.90;;;;;;4945333;28;20047;-61
2023/07/05 07:24:52;;;;;;;5.30;3.47;;;16.10;99.90;;;;;;4922953;28;20523;-61
2023/07/05 07:27:18;;;;;;;4.13;3.17;;;16.30;99.90;;;;;;4908909;29;20035;-59
2023/07/05 07:29:45;;;;;;;6.05;3.25;;;16.30;99.90;;;;;;4912970;29;20047;-60
2023/07/05 07:32:11;;;;;;;5.15;3.30;;;16.30;99.90;;;;;;4938426;28;20047;-59
2023/07/05 07:34:36;;;;;;;6.72;3.13;;;16.20;99.90;;;;;;4923092;28;20384;-60
2023/07/05 07:37:03;;;;;;;6.65;3.00;;;16.20;99.90;;;;;;4925630;28;20039;-59
2023/07/05 07:39:29;;;;;;;5.13;2.88;;;16.10;99.90;;;;;;4940132;28;20074;-60
2023/07/05 07:41:56;;;;;;;7.05;3.38;;;16.00;99.90;;;;;;4913205;29;20047;-60
2023/07/05 07:44:21;;;;;;;3.85;2.63;;;15.90;99.90;;;;;;4909485;29;20988;-61
2023/07/05 07:46:47;;;;;;;5.65;3.00;;;15.80;99.90;;;;;;4906183;29;20126;-59
2023/07/05 07:49:13;;;;;;;5.78;2.60;;;15.70;99.90;;;;;;4922670;29;20118;-59
2023/07/05 07:51:44;;;;;;;2.72;2.22;;;15.60;99.90;;;;;;4921491;29;20069;-59
2023/07/05 07:54:16;;;;;;;4.07;2.90;;;15.50;99.90;;;;;;4904156;29;20385;-61
2023/07/05 07:56:44;;;;;;;3.58;2.72;;;15.40;99.90;;;;;;4907807;29;20048;-59
2023/07/05 07:59:10;;;;;;;3.42;2.38;;;15.30;99.90;;;;;;4908312;29;20397;-60
2023/07/05 08:01:38;;;;;;;4.50;2.75;;;15.10;99.90;;;;;;4906054;29;20044;-61
2023/07/05 08:04:05;;;;;;;4.97;2.50;;;15.00;99.90;;;;;;4908947;29;20902;-60
2023/07/05 08:06:37;;;;;;;6.70;2.50;;;14.90;99.90;;;;;;4905745;29;20512;-60
2023/07/05 08:09:05;;;;;;;4.13;2.30;;;14.70;99.90;;;;;;4908694;29;20070;-59
2023/07/05 08:11:31;;;;;;;6.35;1.80;;;14.60;99.90;;;;;;4921667;29;20055;-59
2023/07/05 08:13:57;;;;;;;1.98;1.75;;;14.40;99.90;;;;;;4896115;29;20067;-58
2023/07/05 08:16:23;;;;;;;2.00;1.50;;;14.40;99.90;;;;;;4916107;29;20157;-59
2023/07/05 08:18:49;;;;;;;3.63;1.42;;;14.20;99.90;;;;;;4904377;29;20070;-59
2023/07/05 08:21:15;;;;;;;3.47;1.17;;;14.10;99.90;;;;;;4923142;29;20099;-59
2023/07/05 08:23:42;;;;;;;2.78;1.30;;;13.90;99.90;;;;;;4904528;29;20048;-59
2023/07/05 08:26:07;;;;;;;1.88;1.20;;;13.80;99.90;;;;;;4909469;29;20444;-59
2023/07/05 08:28:33;;;;;;;1.30;0.90;;;13.70;99.90;;;;;;4911427;29;20040;-59
2023/07/05 08:31:00;;;;;;;2.50;1.17;;;13.60;99.90;;;;;;4899921;29;20043;-58
2023/07/05 08:33:28;;;;;;;2.58;1.00;;;13.50;99.90;;;;;;4903233;29;20138;-58
2023/07/05 08:36:14;;;;;;;0.90;0.70;;;13.40;99.90;;;;;;4936535;29;20047;-58
2023/07/05 08:38:51;;;;;;;4.15;0.85;;;13.30;99.90;;;;;;4906178;29;20106;-58
2023/07/05 08:41:38;;;;;;;1.48;1.00;;;13.20;99.90;;;;;;4921227;29;20454;-59
2023/07/05 08:44:36;;;;;;;2.80;0.98;;;13.10;99.90;;;;;;4921271;29;20571;-58
2023/07/05 08:47:05;;;;;;;1.35;0.82;;;13.10;99.90;;;;;;4906585;29;20452;-59
2023/07/05 08:49:44;;;;;;;4.38;0.90;;;13.00;99.90;;;;;;4907078;29;20051;-60
2023/07/05 08:52:22;;;;;;;0.88;0.70;;;12.90;99.90;;;;;;4909280;29;20119;-59
2023/07/05 08:54:53;;;;;;;1.52;0.98;;;12.90;99.90;;;;;;4889652;29;20151;-61
2023/07/05 08:57:53;;;;;;;2.05;0.90;;;12.90;99.90;;;;;;4902745;29;20476;-59
2023/07/05 09:00:28;;;;;;;1.80;0.90;;;12.90;99.90;;;;;;4895376;29;20062;-59
2023/07/05 09:02:53;;;;;;;2.20;0.90;;;12.80;99.90;;;;;;4904710;29;20095;-58
2023/07/05 09:05:49;;;;;;;1.33;0.88;;;12.80;99.90;;;;;;4904873;29;20043;-59
2023/07/05 09:08:29;;;;;;;1.63;0.90;;;12.80;99.90;;;;;;4921476;29;20051;-59
2023/07/05 09:11:11;;;;;;;3.13;0.90;;;12.80;99.90;;;;;;4908910;29;20143;-60
2023/07/05 09:13:40;;;;;;;5.10;1.40;;;12.70;99.90;;;;;;4904865;29;20052;-59
2023/07/05 09:16:30;;;;;;;2.60;1.00;;;12.70;99.90;;;;;;4898702;29;20194;-60
2023/07/05 09:19:18;;;;;;;3.50;1.05;;;12.70;99.90;;;;;;4904374;29;20373;-59
2023/07/05 09:21:57;;;;;;;4.75;1.70;;;12.70;99.90;;;;;;4904919;29;20035;-59
2023/07/05 09:24:30;;;;;;;6.25;1.75;;;12.70;99.90;;;;;;4904711;29;20087;-59
2023/07/05 09:27:01;;;;;;;2.70;1.48;;;12.70;99.90;;;;;;4894881;29;20048;-60
2023/07/05 09:29:42;;;;;;;4.55;1.45;;;12.80;99.90;;;;;;4908298;29;20056;-60
2023/07/05 09:32:25;;;;;;;8.07;1.63;;;12.80;99.90;;;;;;4903389;29;20056;-60
2023/07/05 09:34:58;;;;;;;6.82;2.10;;;12.90;99.90;;;;;;4904177;29;20059;-60
2023/07/05 09:37:30;;;;;;;6.05;1.30;;;13.00;99.90;;;;;;4902615;29;20142;-60
2023/07/05 09:40:16;;;;;;;6.45;1.10;;;13.10;99.90;;;;;;4920396;29;20046;-58
2023/07/05 09:42:45;;;;;;;5.57;0.63;;;13.20;99.90;;;;;;4901248;29;20058;-59
2023/07/05 09:45:16;;;;;;;3.17;0.88;;;13.30;99.90;;;;;;4906078;29;20520;-58
2023/07/05 09:47:43;;;;;;;3.22;0.60;;;13.40;99.90;;;;;;4919791;29;21066;-59
2023/07/05 09:50:16;;;;;;;6.40;0.80;;;13.50;99.90;;;;;;4919328;29;20054;-59
2023/07/05 09:52:57;;;;;;;4.53;0.85;;;13.50;99.90;;;;;;4920467;29;20059;-59
2023/07/05 09:55:26;;;;;;;6.90;0.80;;;13.60;99.90;;;;;;4903320;29;20102;-60
2023/07/05 09:57:52;;;;;;;4.80;0.90;;;13.60;99.90;;;;;;4901218;29;20130;-59
2023/07/05 10:00:25;;;;;;;3.00;0.73;;;13.70;99.90;;;;;;4917822;29;20075;-60
2023/07/05 10:02:55;;;;;;;3.65;0.70;;;13.70;99.90;;;;;;4919858;29;20575;-58
2023/07/05 10:05:29;;;;;;;3.10;0.73;;;13.70;99.90;;;;;;4902961;29;20088;-61
2023/07/05 10:07:58;;;;;;;2.00;0.60;;;13.80;99.90;;;;;;4921734;29;20437;-59
2023/07/05 10:10:35;;;;;;;1.27;0.57;;;13.80;99.90;;;;;;4889087;29;20156;-59
2023/07/05 10:13:21;;;;;;;2.38;0.60;;;13.80;99.90;;;;;;4903001;29;20111;-58
2023/07/05 10:15:50;;;;;;;1.30;0.70;;;13.90;99.90;;;;;;4887872;29;20051;-59
2023/07/05 10:18:33;;;;;;;5.43;0.68;;;13.90;99.90;;;;;;4902885;29;20046;-59
2023/07/05 10:21:05;;;;;;;3.83;0.55;;;14.00;99.90;;;;;;4906155;29;20091;-59
2023/07/05 10:23:34;;;;;;;3.45;0.50;;;14.20;99.90;;;;;;4917676;29;20040;-59
2023/07/05 10:26:06;;;;;;;2.08;0.73;;;14.30;99.90;;;;;;4913294;29;20052;-61
2023/07/05 10:28:36;;;;;;;3.05;0.50;;;14.50;99.90;;;;;;4902165;29;20947;-59
2023/07/05 10:31:07;;;;;;;6.32;0.90;;;14.70;99.90;;;;;;4889910;29;20040;-59
2023/07/05 10:33:37;;;;;;;4.68;0.82;;;14.90;99.90;;;;;;4875108;29;20538;-60
2023/07/05 10:36:05;;;;;;;7.90;0.88;;;15.00;99.90;;;;;;4919987;29;20051;-60
2023/07/05 10:38:46;;;;;;;9.30;0.70;;;15.10;99.90;;;;;;4920651;29;20043;-59
2023/07/05 10:41:31;;;;;;;5.60;0.82;;;15.10;99.90;;;;;;4907769;29;20118;-60
2023/07/05 10:44:32;;;;;;;2.58;0.88;;;15.10;99.90;;;;;;4925542;29;20516;-59
2023/07/05 10:46:59;;;;;;;2.67;0.80;;;15.20;99.90;;;;;;4926649;29;20068;-59
2023/07/05 10:49:27;;;;;;;4.63;1.10;;;15.40;99.90;;;;;;4896683;29;20051;-59
2023/07/05 10:51:57;;;;;;;3.00;0.80;;;15.50;99.90;;;;;;4909126;29;20044;-60
2023/07/05 10:54:28;;;;;;;1.58;0.70;;;15.80;99.90;;;;;;4909068;29;20130;-60
2023/07/05 10:56:54;;;;;;;4.40;1.00;;;16.10;99.90;;;;;;4908172;29;20044;-60
2023/07/05 10:59:45;;;;;;;7.00;0.95;;;16.50;99.90;;;;;;4907948;29;20131;-59
2023/07/05 11:02:17;;;;;;;3.38;0.75;;;16.90;99.90;;;;;;4908322;29;20525;-59
2023/07/05 11:04:44;;;;;;;2.38;0.60;;;17.20;99.90;;;;;;4926475;29;20055;-59
2023/07/05 11:07:12;;;;;;;6.40;0.80;;;17.40;99.90;;;;;;4908024;29;20055;-60
2023/07/05 11:09:38;;;;;;;2.33;0.70;;;17.40;99.90;;;;;;4937045;28;20052;-61
2023/07/05 11:12:29;;;;;;;1.27;0.63;;;17.40;99.90;;;;;;4907903;29;20059;-60
2023/07/05 11:14:57;;;;;;;2.03;0.60;;;17.60;99.90;;;;;;4902607;29;20102;-60
2023/07/05 11:17:23;;;;;;;3.17;0.50;;;17.70;99.90;;;;;;4908933;29;20054;-59
2023/07/05 11:19:48;;;;;;;4.13;0.82;;;17.90;99.90;;;;;;4904301;29;21214;-59
2023/07/05 11:22:38;;;;;;;3.22;0.85;;;18.20;99.90;;;;;;4886345;29;20033;-60
2023/07/05 11:25:04;;;;;;;6.63;0.88;;;18.50;99.90;;;;;;4903865;29;20082;-61
2023/07/05 11:27:29;;;;;;;2.72;1.25;;;18.50;99.90;;;;;;4903266;29;20079;-59
2023/07/05 11:29:56;;;;;;;2.20;0.90;;;18.50;99.90;;;;;;4903015;29;20633;-59
2023/07/05 11:32:27;;;;;;;2.92;0.90;;;18.30;99.90;;;;;;4920691;29;20051;-60
2023/07/05 11:34:55;;;;;;;2.45;1.00;;;18.30;99.90;;;;;;4887315;29;20577;-59
2023/07/05 11:37:21;;;;;;;4.63;1.10;;;18.30;99.90;;;;;;4904013;29;20052;-60
2023/07/05 11:39:49;;;;;;;2.15;0.85;;;18.40;99.90;;;;;;4904986;29;20059;-58
2023/07/05 11:42:14;;;;;;;3.00;0.80;;;18.40;99.90;;;;;;4907418;29;20054;-58
2023/07/05 11:45:10;;;;;;;2.75;1.40;;;18.40;99.90;;;;;;4924234;29;20055;-59
2023/07/05 11:47:36;;;;;;;3.63;1.00;;;18.30;99.90;;;;;;4940293;28;20067;-60
2023/07/05 11:50:07;;;;;;;4.32;1.25;;;18.20;99.90;;;;;;4940468;28;20059;-59
2023/07/05 11:52:43;;;;;;;4.53;1.05;;;18.00;99.90;;;;;;4939256;28;20056;-60
2023/07/05 11:55:11;;;;;;;8.02;1.42;;;18.00;99.90;;;;;;4909272;29;20083;-59
2023/07/05 11:57:43;;;;;;;8.57;1.40;;;18.00;99.90;;;;;;4924790;29;20110;-60
2023/07/05 12:00:20;;;;;;;4.05;1.55;;;18.10;99.90;;;;;;4921812;28;20047;-58
2023/07/05 12:02:57;;;;;;;8.43;1.30;;;18.10;99.90;;;;;;4923046;29;20344;-58
2023/07/05 12:05:27;;;;;;;7.38;1.58;;;18.20;99.90;;;;;;4925034;29;20035;-59
2023/07/05 12:08:00;;;;;;;4.68;1.30;;;18.20;99.90;;;;;;4943600;28;20079;-58
2023/07/05 12:10:27;;;;;;;;;;;18.10;99.90;;;;;;4913041;29;20083;-58
2023/07/05 12:12:53;;;;;;;3.75;0.98;;;17.90;99.90;;;;;;4924004;29;19981;-59
2023/07/05 12:15:19;;;;;;;7.63;1.90;;;17.70;99.90;;;;;;4941625;29;20039;-58
2023/07/05 12:17:46;;;;;;;11.75;2.40;;;17.50;99.90;;;;;;4921777;29;20047;-61
2023/07/05 12:20:28;;;;;;;11.27;2.35;;;17.30;99.90;;;;;;4939447;28;20051;-59
2023/07/05 12:22:58;;;;;;;11.23;2.20;;;16.90;99.90;;;;;;4939203;28;20402;-58
2023/07/05 12:25:25;;;;;;;13.57;2.20;;;16.60;99.90;;;;;;4923896;28;20047;-60
2023/07/05 12:27:52;;;;;;;7.55;2.38;;;16.40;99.90;;;;;;4941308;28;20051;-58
2023/07/05 12:30:21;;;;;;;6.60;1.80;;;16.20;99.90;;;;;;4925261;29;20055;-58
2023/07/05 12:32:54;;;;;;;8.88;2.35;;;15.90;99.90;;;;;;4941701;29;20031;-59
2023/07/05 12:35:24;;;;;;;5.45;1.75;;;15.70;99.90;;;;;;4926807;29;20194;-58
2023/07/05 12:37:50;;;;;;;8.35;2.00;;;15.50;99.90;;;;;;4912821;29;20083;-58
2023/07/05 12:40:19;;;;;;;7.00;1.75;;;15.30;99.90;;;;;;4924603;29;20118;-59
2023/07/05 12:42:47;;;;;;;8.85;1.70;;;15.20;99.90;;;;;;4940507;28;20067;-60
2023/07/05 12:45:17;;;;;;;8.27;1.95;;;15.10;99.90;;;;;;4937979;29;20487;-58
2023/07/05 12:47:42;;;;;;;7.53;1.90;;;15.00;99.90;;;;;;4930271;28;20454;-58
2023/07/05 12:50:09;;;;;;;11.05;1.95;;;14.90;99.90;;;;;;4940529;29;20070;-60
2023/07/05 12:52:35;;;;;;;7.80;1.50;;;14.80;99.90;;;;;;4919846;29;20082;-59
2023/07/05 12:55:00;;;;;;;4.40;1.77;;;14.70;99.90;;;;;;4937216;28;20047;-58
2023/07/05 12:57:30;;;;;;;10.55;2.25;;;14.70;99.90;;;;;;4937955;28;20443;-60